Latest Weather Observations for Coolangatta

IDQ60901

Issued at 9:25 am EST Saturday 23 August 2014 (issued every 10 minutes, with the page automatically refreshed every 10 minutes)

About weather observations | Map of Brisbane area stations | Latest observations for Brisbane area | Other Formats
Station Details ID: 040717 Name: COOLANGATTA Lat: -28.17 Lon: 153.51 Height: 4.0 m
Data from the previous 72 hours. | See also: Recent months at Coolangatta
Date/Time
EST
Tmp

°C
App
Tmp
°C
Dew
Point
°C
Rel
Hum
%
Delta-T

°C
Wind Press
QNH
hPa
Press
MSL
hPa
Rain
since
9 am
mm
Dir
 
Spd
km/h
Gust
km/h
Spd
kts
Gust
kts
23/09:08am 15.5 13.1 14.4 93 0.6 SSE 20 28 11 15 1025.0 1025.0 0.2
23/09:00am 15.3 13.1 14.3 94 0.6 S 19 26 10 14 1025.0 1025.0 48.8
23/08:30am 14.3 10.3 12.9 91 0.8 SSE 26 35 14 19 1025.0 1025.0 47.0
23/08:20am 15.4 12.2 14.3 93 0.6 SE 24 30 13 16 1025.0 1025.0 44.6
23/08:00am 15.4 13.5 14.3 93 0.6 S 17 24 9 13 1024.4 1024.4 42.6
23/07:30am 15.3 13.4 14.2 93 0.6 S 17 24 9 13 1024.3 1024.3 41.8
23/07:21am 15.2 13.8 14.4 95 0.5 S 15 20 8 11 1024.2 1024.2 41.6
23/07:00am 14.7 12.6 13.7 94 0.6 S 17 26 9 14 1024.2 1024.2 41.0
23/06:30am 14.3 11.7 13.2 93 0.6 SSW 19 26 10 14 1023.8 1023.8 40.0
23/06:00am 14.2 11.5 12.9 92 0.7 S 19 28 10 15 1023.6 1023.6 39.6
23/05:30am 14.4 12.5 13.0 91 0.8 SSW 15 20 8 11 1023.4 1023.4 39.2
23/05:00am 14.4 11.5 13.0 91 0.8 S 20 28 11 15 1023.0 1023.0 39.2
23/04:30am 14.1 11.7 12.8 92 0.7 S 17 24 9 13 1022.8 1022.8 39.0
23/04:00am 14.2 12.3 12.9 92 0.7 S 15 24 8 13 1022.8 1022.8 38.6
23/03:30am 14.4 11.7 13.0 91 0.8 SSW 19 28 10 15 1022.7 1022.7 38.2
23/03:00am 14.4 13.4 13.3 93 0.6 SSW 11 13 6 7 1023.7 1023.7 37.8
23/02:30am 14.5 12.7 13.2 92 0.7 SSW 15 20 8 11 1023.9 1023.9 37.2
23/02:00am 14.6 12.1 13.6 94 0.6 SW 19 26 10 14 1023.8 1023.8 37.2
23/01:30am 14.5 12.8 13.5 94 0.6 S 15 20 8 11 1024.3 1024.3 37.0
23/01:27am 14.5 12.4 13.5 94 0.6 S 17 20 9 11 1024.2 1024.2 37.0
23/01:00am 14.2 13.2 13.4 95 0.4 E 11 17 6 9 1024.5 1024.5 36.0
23/12:30am 14.1 12.2 13.1 94 0.6 S 15 20 8 11 1025.0 1025.0 33.4
23/12:25am 14.1 12.2 13.1 94 0.6 S 15 20 8 11 1025.1 1025.1 33.0
23/12:12am 14.3 12.1 13.2 93 0.6 S 17 24 9 13 1025.4 1025.4 32.4
23/12:00am 14.6 12.5 13.6 94 0.6 S 17 24 9 13 1025.3 1025.3 32.2
 
Date/Time
EST
Tmp

°C
App
Tmp
°C
Dew
Point
°C
Rel
Hum
%
Delta-T

°C
Wind Press
QNH
hPa
Press
MSL
hPa
Rain
since
9 am
mm
Dir
 
Spd
km/h
Gust
km/h
Spd
kts
Gust
kts
22/11:34pm 15.1 12.6 14.1 94 0.6 S 20 30 11 16 1025.2 1025.2 30.0
22/11:30pm 15.0 12.1 14.0 94 0.6 SSE 22 32 12 17 1025.2 1025.2 29.8
22/11:14pm 14.8 11.9 14.0 95 0.4 S 22 32 12 17 1025.3 1025.3 28.6
22/11:10pm 14.7 12.1 13.9 95 0.4 S 20 30 11 16 1025.2 1025.2 28.4
22/11:08pm 14.6 12.0 13.8 95 0.4 S 20 30 11 16 1025.3 1025.3 28.2
22/11:02pm 14.3 11.8 13.5 95 0.4 S 19 30 10 16 1025.3 1025.3 28.0
22/11:00pm 14.3 12.2 13.5 95 0.4 S 17 24 9 13 1025.3 1025.3 27.8
22/10:52pm 14.3 11.8 13.5 95 0.4 S 19 26 10 14 1025.3 1025.3 27.4
22/10:35pm 14.5 12.0 13.5 94 0.6 S 19 28 10 15 1025.5 1025.5 24.0
22/10:32pm 14.5 12.0 13.4 93 0.6 S 19 28 10 15 1025.5 1025.5 23.2
22/10:30pm 14.5 12.3 13.4 93 0.6 S 17 28 9 15 1025.5 1025.5 23.2
22/10:00pm 14.5 13.1 13.4 93 0.6 S 13 20 7 11 1025.4 1025.4 21.0
22/09:46pm 14.6 12.4 13.3 92 0.7 SSW 17 24 9 13 1025.5 1025.5 18.6
22/09:43pm 14.6 12.4 13.3 92 0.7 SSW 17 24 9 13 1025.4 1025.4 18.4
22/09:30pm 14.4 12.1 13.1 92 0.7 SSW 17 22 9 12 1025.3 1025.3 18.0
22/09:08pm 14.6 13.1 13.1 91 0.8 SSW 13 20 7 11 1025.4 1025.4 16.0
22/09:00pm 14.6 13.1 13.1 91 0.8 SSW 13 20 7 11 1025.4 1025.4 15.4
22/08:30pm 14.5 13.0 13.0 91 0.8 SSW 13 20 7 11 1025.4 1025.4 14.8
22/08:00pm 14.5 12.2 13.0 91 0.8 SSW 17 22 9 12 1025.2 1025.2 14.4
22/07:30pm 14.6 13.1 13.0 90 0.9 S 13 19 7 10 1025.4 1025.4 14.0
22/07:00pm 14.6 12.6 12.8 89 1.0 SSW 15 24 8 13 1025.2 1025.2 13.6
22/06:30pm 14.6 11.5 12.3 86 1.3 S 20 30 11 16 1025.0 1025.0 13.4
22/06:00pm 14.6 11.6 12.6 88 1.1 SSW 20 30 11 16 1024.7 1024.7 13.4
22/05:30pm 14.7 12.3 12.6 87 1.1 S 17 24 9 13 1024.5 1024.5 13.0
22/05:00pm 14.8 12.0 12.7 87 1.1 S 19 26 10 14 1024.3 1024.3 13.0
22/04:30pm 14.7 11.7 12.7 88 1.1 S 20 30 11 16 1024.2 1024.2 13.0
22/04:00pm 14.4 11.6 12.6 89 1.0 SSW 19 28 10 15 1024.2 1024.2 13.0
22/03:30pm 14.5 12.6 12.9 90 0.9 SSW 15 20 8 11 1024.4 1024.4 13.0
22/03:25pm 14.5 12.6 13.0 91 0.8 SSW 15 20 8 11 1024.5 1024.5 13.0
22/03:06pm 14.7 11.9 13.2 91 0.8 S 20 32 11 17 1024.7 1024.7 12.6
22/03:00pm 14.9 12.1 13.3 90 0.9 S 20 32 11 17 1024.7 1024.7 12.2
22/02:43pm 15.2 12.6 13.7 91 0.8 S 20 30 11 16 1024.7 1024.7 12.2
22/02:30pm 15.2 13.3 14.2 94 0.6 S 17 26 9 14 1024.7 1024.7 12.0
22/02:04pm 14.9 12.5 13.9 94 0.6 SSW 19 28 10 15 1025.0 1025.0 11.4
22/02:00pm 14.8 12.4 13.7 93 0.6 SSW 19 28 10 15 1025.0 1025.0 10.8
22/01:30pm 15.0 12.6 13.9 93 0.6 S 19 24 10 13 1025.1 1025.1 8.0
22/01:04pm 15.6 14.4 14.1 91 0.8 ESE 13 19 7 10 1025.5 1025.5 3.4
22/01:00pm 15.6 15.2 14.0 90 0.9 SSE 9 13 5 7 1025.4 1025.4 2.2
22/12:30pm 15.8 13.3 13.6 87 1.2 S 19 26 10 14 1025.4 1025.4 1.0
22/12:03pm 16.1 13.7 14.3 89 1.0 S 20 30 11 16 1025.6 1025.6 1.0
22/12:00pm 16.1 13.7 14.3 89 1.0 S 20 30 11 16 1025.7 1025.7 1.0
22/11:53am 16.2 13.8 14.4 89 1.0 S 20 26 11 14 1025.7 1025.7 1.0
22/11:30am 15.9 13.5 14.3 90 0.9 S 20 28 11 15 1026.1 1026.1 1.0
22/11:00am 16.7 15.4 14.7 88 1.1 S 15 24 8 13 1026.4 1026.4 0.8
22/10:57am 16.9 15.3 14.9 88 1.2 SSW 17 24 9 13 1026.4 1026.4 0.8
22/10:41am 16.8 15.0 14.4 86 1.4 SSW 17 22 9 12 1026.8 1026.8 0.8
22/10:30am 17.4 16.0 15.6 89 1.1 SW 17 22 9 12 1026.7 1026.7 0.8
22/10:00am 16.0 14.4 14.9 93 0.6 S 17 24 9 13 1026.9 1026.9 0.8
22/09:33am 15.2 13.7 14.2 94 0.6 S 15 20 8 11 1026.7 1026.7 0.8
22/09:30am 15.2 13.7 14.2 94 0.6 S 15 20 8 11 1026.8 1026.8 0.8
22/09:22am 14.8 14.0 14.0 95 0.4 SSW 11 17 6 9 1026.8 1026.8 0.8
22/09:00am 14.3 12.6 13.5 95 0.4 S 15 20 8 11 1027.0 1027.0 15.0
22/08:41am 14.4 13.5 13.6 95 0.4 SSE 11 19 6 10 1027.2 1027.2 8.0
22/08:30am 14.3 12.9 13.3 94 0.6 SSW 13 15 7 8 1027.2 1027.2 5.8
22/08:00am 14.3 13.2 13.0 92 0.7 SSW 11 17 6 9 1027.0 1027.0 1.8
22/07:52am 14.3 13.2 13.0 92 0.7 S 11 15 6 8 1026.8 1026.8 1.4
22/07:30am 14.3 12.4 12.9 91 0.8 SSW 15 26 8 14 1026.4 1026.4 1.2
22/07:00am 14.0 12.7 12.6 91 0.8 SSW 11 17 6 9 1025.9 1025.9 1.0
22/06:55am 14.0 12.3 12.4 90 0.9 SSW 13 17 7 9 1025.8 1025.8 1.0
22/06:40am 13.9 12.2 12.5 91 0.8 S 13 19 7 10 1025.7 1025.7 1.0
22/06:30am 13.9 11.4 12.3 90 0.9 S 17 26 9 14 1025.6 1025.6 1.0
22/06:00am 13.9 11.7 12.1 89 1.0 S 15 22 8 12 1025.1 1025.1 0.8
22/05:30am 14.2 12.3 11.9 86 1.2 S 13 19 7 10 1025.0 1025.0 0.6
22/05:00am 14.5 12.6 11.8 84 1.4 S 13 20 7 11 1024.9 1024.9 0.6
22/04:30am 14.5 12.2 11.8 84 1.5 S 15 20 8 11 1024.8 1024.8 0.6
22/04:00am 14.3 11.6 11.8 85 1.3 S 17 22 9 12 1024.4 1024.4 0.6
22/03:30am 14.7 11.4 11.5 81 1.7 S 20 32 11 17 1023.9 1023.9 0.4
22/03:00am 15.2 12.8 11.4 78 2.0 SSW 15 20 8 11 1024.4 1024.4 0.4
22/02:30am 15.2 12.4 11.2 77 2.1 S 17 24 9 13 1024.3 1024.3 0.4
22/02:00am 15.4 12.6 11.2 76 2.2 SSW 17 24 9 13 1024.9 1024.9 0.4
22/01:30am 15.0 11.8 11.2 78 2.0 SSW 19 30 10 16 1024.2 1024.2 0.4
22/01:00am 14.9 12.5 11.5 80 1.8 SSW 15 22 8 12 1025.1 1025.1 0.4
22/12:30am 15.2 12.9 11.6 79 1.9 SSW 15 24 8 13 1025.3 1025.3 0.4
22/12:00am 15.3 13.4 11.9 80 1.8 SSW 13 20 7 11 1025.3 1025.3 0.4
 
Date/Time
EST
Tmp

°C
App
Tmp
°C
Dew
Point
°C
Rel
Hum
%
Delta-T

°C
Wind Press
QNH
hPa
Press
MSL
hPa
Rain
since
9 am
mm
Dir
 
Spd
km/h
Gust
km/h
Spd
kts
Gust
kts
21/11:30pm 15.5 13.6 11.7 78 2.1 SSW 13 20 7 11 1025.2 1025.2 0.4
21/11:00pm 15.9 12.8 11.5 75 2.4 SSW 19 26 10 14 1025.1 1025.1 0.4
21/10:30pm 15.9 13.1 11.3 74 2.5 SSW 17 22 9 12 1025.2 1025.2 0.4
21/10:00pm 16.1 13.2 11.1 72 2.7 SSW 17 22 9 12 1025.2 1025.2 0.4
21/09:30pm 16.0 13.6 11.4 74 2.5 SSW 15 22 8 12 1025.2 1025.2 0.4
21/09:00pm 15.7 13.2 11.1 74 2.4 S 15 24 8 13 1024.9 1024.9 0.4
21/08:30pm 15.7 12.3 11.3 75 2.4 S 20 30 11 16 1024.9 1024.9 0.4
21/08:00pm 15.9 11.7 11.1 73 2.6 SSE 24 35 13 19 1024.9 1024.9 0.4
21/07:30pm 15.4 12.5 12.3 82 1.7 S 19 26 10 14 1024.8 1024.8 0.4
21/07:00pm 15.8 13.0 13.3 85 1.4 SSE 20 30 11 16 1024.5 1024.5 0.4
21/06:30pm 15.3 13.2 13.5 89 1.0 S 17 30 9 16 1024.3 1024.3 0.4
21/06:25pm 15.1 12.6 13.5 90 0.9 S 19 24 10 13 1024.2 1024.2 0.4
21/06:05pm 15.2 11.2 12.9 86 1.3 SSE 26 44 14 24 1024.3 1024.3 0.4
21/06:00pm 16.0 13.2 13.1 83 1.6 SSE 20 35 11 19 1024.1 1024.1 0.2
21/05:30pm 16.1 13.1 13.6 85 1.4 SSE 22 32 12 17 1023.5 1023.5 0.0
21/05:25pm 16.0 13.0 13.7 86 1.3 SSE 22 33 12 18 1023.6 1023.6 0.0
21/05:11pm 15.8 10.9 12.7 82 1.7 SSE 30 44 16 24 1023.4 1023.4 0.0
21/05:00pm 17.6 13.9 12.7 73 2.7 S 24 35 13 19 1023.1 1023.1 0.0
21/04:30pm 17.6 13.0 12.3 71 2.9 SSE 28 41 15 22 1023.0 1023.0 0.0
21/04:00pm 18.0 14.7 12.9 72 2.8 S 22 35 12 19 1022.6 1022.6 0.0
21/03:30pm 17.9 14.2 12.8 72 2.8 S 24 37 13 20 1022.3 1022.3 0.0
21/03:00pm 16.8 12.5 13.3 80 2.0 S 28 39 15 21 1022.3 1022.3 0.0
21/02:30pm 17.6 13.6 13.1 75 2.5 SSE 26 35 14 19 1022.2 1022.2 0.0
21/02:00pm 18.9 12.7 9.9 56 4.8 SSE 33 44 18 24 1022.0 1022.0 0.0
21/01:35pm 20.2 14.5 11.9 59 4.6 SSE 33 52 18 28 1022.2 1022.2 0.0
21/01:30pm 19.2 12.6 9.9 55 5.0 SSE 35 52 19 28 1022.2 1022.2 0.0
21/01:01pm 19.0 13.9 13.6 71 3.1 SSE 33 52 18 28 1022.3 1022.3 0.0
21/01:00pm 18.6 13.0 13.2 71 3.0 SSE 35 52 19 28 1022.3 1022.3 0.0
21/12:47pm 20.0 13.6 10.7 55 5.1 SSE 35 56 19 30 1022.2 1022.2 0.0
21/12:30pm 19.8 14.1 11.3 58 4.7 S 32 44 17 24 1022.5 1022.5 0.0
21/12:07pm 19.5 14.0 12.5 64 3.9 S 33 52 18 28 1023.0 1023.0 0.0
21/12:00pm 19.0 12.9 11.6 62 4.0 S 35 52 19 28 1023.2 1023.2 0.0
21/11:55am 19.4 14.3 10.7 57 4.7 S 28 52 15 28 1023.2 1023.2 0.0
21/11:30am 19.9 14.6 11.4 58 4.7 S 30 46 16 25 1023.4 1023.4 0.0
21/11:00am 20.3 14.9 12.3 60 4.5 S 32 44 17 24 1023.8 1023.8 0.0
21/10:34am 19.2 13.2 10.7 58 4.6 S 33 52 18 28 1023.8 1023.8 0.0
21/10:30am 19.6 14.0 11.4 59 4.5 S 32 43 17 23 1023.9 1023.9 0.0
21/10:00am 18.8 13.0 10.9 60 4.3 S 32 43 17 23 1023.8 1023.8 0.0
21/09:41am 18.0 12.9 10.6 62 4.0 SSW 28 46 15 25 1024.1 1024.1 0.0
21/09:30am 17.8 13.5 10.9 64 3.7 SSW 24 41 13 22 1024.2 1024.2 0.0
21/09:00am 16.9 11.8 10.7 67 3.3 S 28 48 15 26 1024.2 1024.2 0.0
21/08:59am 16.9 11.8 10.5 66 3.4 S 28 48 15 26 1024.2 1024.2 0.0
21/08:30am 16.4 12.0 10.3 67 3.2 S 24 35 13 19 1023.9 1023.9 0.0
21/08:00am 15.8 10.5 9.9 68 3.1 SSW 28 41 15 22 1023.6 1023.6 0.0
21/07:30am 15.4 10.9 10.0 70 2.8 SSW 24 39 13 21 1023.4 1023.4 0.0
21/07:00am 14.7 10.5 9.9 73 2.5 SSW 22 35 12 19 1023.3 1023.3 0.0
21/06:30am 14.2 9.3 10.0 76 2.2 SSW 26 41 14 22 1023.1 1023.1 0.0
21/06:00am 13.9 9.4 9.9 77 2.1 SSW 24 43 13 23 1022.8 1022.8 0.0
21/05:30am 14.2 10.5 10.2 77 2.1 SSW 20 33 11 18 1022.5 1022.5 0.0
21/05:00am 14.4 10.8 10.4 77 2.1 SSW 20 33 11 18 1022.4 1022.4 0.0
21/04:30am 14.6 11.0 10.6 77 2.1 S 20 30 11 16 1022.3 1022.3 0.0
21/04:00am 14.9 11.3 10.7 76 2.2 S 20 33 11 18 1022.0 1022.0 0.0
21/03:30am 14.8 10.9 10.8 77 2.1 SSW 22 30 12 16 1021.9 1021.9 0.0
21/03:00am 15.1 11.2 10.9 76 2.2 SSW 22 37 12 20 1021.8 1021.8 0.0
21/02:30am 15.3 11.1 11.1 76 2.2 SSW 24 39 13 21 1021.8 1021.8 0.0
21/02:00am 15.4 11.2 11.2 76 2.2 S 24 39 13 21 1021.9 1021.9 0.0
21/01:30am 15.6 11.1 11.4 76 2.3 S 26 33 14 18 1022.0 1022.0 0.0
21/01:00am 15.8 11.7 11.4 75 2.4 S 24 33 13 18 1022.3 1022.3 0.0
21/12:30am 15.7 12.4 11.5 76 2.3 SSW 20 32 11 17 1022.5 1022.5 0.0
21/12:00am 15.7 12.6 11.7 77 2.2 S 19 30 10 16 1022.5 1022.5 0.0
 
Date/Time
EST
Tmp

°C
App
Tmp
°C
Dew
Point
°C
Rel
Hum
%
Delta-T

°C
Wind Press
QNH
hPa
Press
MSL
hPa
Rain
since
9 am
mm
Dir
 
Spd
km/h
Gust
km/h
Spd
kts
Gust
kts
20/11:30pm 16.1 13.1 11.9 76 2.3 S 19 30 10 16 1022.6 1022.6 0.0
20/11:00pm 15.8 12.6 11.8 77 2.2 S 20 30 11 16 1022.5 1022.5 0.0
20/10:30pm 16.2 12.9 11.6 74 2.5 S 20 30 11 16 1022.5 1022.5 0.0
20/10:00pm 16.1 12.8 11.5 74 2.5 S 20 30 11 16 1022.5 1022.5 0.0
20/09:30pm 16.0 12.8 11.4 74 2.5 S 19 26 10 14 1022.5 1022.5 0.0
20/09:00pm 16.3 13.1 11.2 72 2.7 S 19 32 10 17 1022.5 1022.5 0.0
20/08:30pm 16.2 13.0 11.2 72 2.7 S 19 30 10 16 1022.6 1022.6 0.0
20/08:00pm 16.5 13.2 11.0 70 2.9 S 19 28 10 15 1022.7 1022.7 0.0
20/07:30pm 16.6 14.1 11.1 70 3.0 S 15 20 8 11 1022.4 1022.4 0.0
20/07:00pm 16.5 13.5 10.8 69 3.0 S 17 26 9 14 1021.9 1021.9 0.0
20/06:30pm 16.8 13.3 10.9 68 3.2 S 20 30 11 16 1021.4 1021.4 0.0
20/06:00pm 17.0 13.5 10.8 67 3.3 S 20 28 11 15 1020.9 1020.9 0.0
20/05:30pm 17.4 13.1 10.8 65 3.5 S 24 35 13 19 1020.4 1020.4 0.0
20/05:00pm 18.0 13.7 10.6 62 4.0 S 24 41 13 22 1020.0 1020.0 0.0
20/04:30pm 18.8 14.5 10.9 60 4.3 S 24 37 13 20 1019.8 1019.8 0.0
20/04:00pm 19.2 13.5 11.0 59 4.4 S 32 43 17 23 1019.6 1019.6 0.0
20/03:30pm 19.5 14.4 10.5 56 4.9 S 28 43 15 23 1019.4 1019.4 0.0
20/03:00pm 19.4 13.8 10.1 55 5.0 S 30 39 16 21 1019.1 1019.1 0.0
20/02:30pm 19.9 14.6 10.0 53 5.3 S 28 39 15 21 1018.8 1018.8 0.0
20/02:00pm 20.5 15.7 10.3 52 5.5 S 26 43 14 23 1018.8 1018.8 0.0
20/01:30pm 20.7 14.9 9.6 49 5.9 S 30 41 16 22 1019.0 1019.0 0.0
20/01:00pm 20.6 15.4 10.1 51 5.6 S 28 43 15 23 1019.1 1019.1 0.0
20/12:30pm 20.7 15.2 9.3 48 6.1 SSE 28 39 15 21 1019.0 1019.0 0.0
20/12:00pm 21.6 17.5 10.1 48 6.2 S 22 32 12 17 1019.3 1019.3 0.0
20/11:30am 20.6 15.9 9.2 48 6.0 S 24 35 13 19 1019.8 1019.8 0.0
20/11:00am 20.2 14.3 9.2 49 5.8 SSE 30 41 16 22 1020.1 1020.1 0.0
20/10:30am 20.3 15.8 10.1 52 5.5 SSW 24 35 13 19 1020.3 1020.3 0.0
20/10:00am 19.7 14.5 9.0 50 5.6 S 26 35 14 19 1020.3 1020.3 0.0
20/09:30am 19.1 14.2 8.4 50 5.5 SSW 24 35 13 19 1020.2 1020.2 0.0

Latest Capital City Observations: Canberra | Sydney | Melbourne | Brisbane | Adelaide | Perth | Hobart | Darwin

Other Formats:

Comma delimited format used in spreadsheet applications
http://www.bom.gov.au/fwo/IDQ60901/IDQ60901.94592.axf

JavaScript Object Notation format (JSON) in row-major order
http://www.bom.gov.au/fwo/IDQ60901/IDQ60901.94592.json